Pisces — WDE7319 — position and weather

sailwx.info

Track history (hours):
 
Tides and Currents Weather Stations Pressure Air Temp Water Temp Dewpoint Dewpoint Depression Visibility Wind Speed Wind Dir Waves Ship Positions

Pisces

Owner: San Francisco Bay Area Water Emergency Transportation Authority, San Francisco, CA. More information available from US FCC via Universal Licensing System and Coast Guard Vessel Documentation Center.

Last reported at 2018-Jun-18 15:01 UTC. Time now 2018-Jun-18 15:03 UTC.
Position N 37°47' W 122°21'.

Length 35 m.

MMSI: 367391830.

Date/timePositionNaut miles runAvg speedWind from/ knotsBaromVisibWave heightAir tempDewpointWater temp
2018-Jun-18 15:01N 37°47' W 122°21'3 5.2
2018-Jun-18 14:28N 37°47' W 122°18'4 7.8
2018-Jun-18 14:00N 37°44' W 122°20'  
2018-Jun-16 03:26N 37°40' W 122°23'819.8
2018-Jun-16 03:00N 37°48' W 122°19'1 1.7
2018-Jun-16 02:31N 37°48' W 122°18'814.3
2018-Jun-16 01:55N 37°40' W 122°23'715.5
2018-Jun-16 01:27N 37°44' W 122°15'714.7
2018-Jun-16 00:58N 37°48' W 122°24'510.2
2018-Jun-16 00:30N 37°47' W 122°18'1 1.3
2018-Jun-16 00:00N 37°48' W 122°17'816.6
2018-Jun-15 23:30N 37°40' W 122°22'1 1.4
2018-Jun-15 22:58N 37°40' W 122°23'815.0
2018-Jun-15 22:27N 37°48' W 122°24'0 0.0
2018-Jun-15 04:33N 37°48' W 122°24'0 0.0
2018-Jun-15 04:30N 37°48' W 122°24'610.5
2018-Jun-15 03:58N 37°48' W 122°17'510.7
2018-Jun-15 03:30N 37°48' W 122°23'2 2.7
2018-Jun-15 02:57N 37°49' W 122°25'0 0.0
2018-Jun-15 02:30N 37°49' W 122°25'0 0.0
2018-Jun-15 02:00N 37°49' W 122°25'1 2.4
2018-Jun-15 01:30N 37°49' W 122°23'4 7.8
2018-Jun-15 00:56N 37°47' W 122°18'716.7
2018-Jun-15 00:31N 37°41' W 122°21'2 3.0
2018-Jun-15 00:00N 37°40' W 122°23'2 3.1
2018-Jun-14 23:30N 37°41' W 122°21'713.6
2018-Jun-14 22:58N 37°48' W 122°24'0 0.0
2018-Jun-14 22:28N 37°48' W 122°24'0 0.0
2018-Jun-14 21:52N 37°48' W 122°24'0 0.0
2018-Jun-14 21:28N 37°48' W 122°24'0 0.0
2018-Jun-14 20:55N 37°48' W 122°24'0 0.0
2018-Jun-14 20:25N 37°48' W 122°24'0 0.0
2018-Jun-14 19:55N 37°48' W 122°24'0 0.0
2018-Jun-14 19:25N 37°48' W 122°24'0 0.0
2018-Jun-14 18:58N 37°48' W 122°24'1 1.8
2018-Jun-14 18:27N 37°49' W 122°25'1 2.3
2018-Jun-14 17:53N 37°48' W 122°24'511.7
2018-Jun-14 17:29N 37°47' W 122°18'0 0.2
2018-Jun-14 17:00N 37°48' W 122°18'5 9.7
2018-Jun-14 16:30N 37°48' W 122°24'0 0.4
2018-Jun-14 16:00N 37°48' W 122°24'1 1.8
2018-Jun-14 15:30N 37°49' W 122°25'0 0.0
2018-Jun-14 14:57N 37°49' W 122°25'1 2.6
2018-Jun-14 14:27N 37°48' W 122°24'713.7
2018-Jun-14 13:55N 37°44' W 122°15'3 7.6
2018-Jun-14 13:30N 37°44' W 122°19'5 0.5
2018-Jun-14 03:25N 37°40' W 122°23'820.1
2018-Jun-14 03:01N 37°48' W 122°19'0 0.8
2018-Jun-14 02:30N 37°48' W 122°20'816.7
2018-Jun-14 02:00N 37°40' W 122°23'712.2
2018-Jun-14 01:25N 37°44' W 122°15'716.0
2018-Jun-14 00:58N 37°48' W 122°24'5 9.5
2018-Jun-14 00:28N 37°47' W 122°18'1 1.1
2018-Jun-14 00:00N 37°48' W 122°17'916.8
2018-Jun-13 23:29N 37°40' W 122°23'0 0.3
2018-Jun-13 23:00N 37°40' W 122°22'814.6
2018-Jun-13 22:28N 37°48' W 122°23'0 0.8
2018-Jun-13 21:57N 37°48' W 122°24'0 0.0
2018-Jun-13 21:24N 37°48' W 122°24'0 0.0
2018-Jun-13 21:00N 37°48' W 122°24'0 0.0
2018-Jun-13 20:30N 37°48' W 122°24'0 0.0
2018-Jun-13 19:57N 37°48' W 122°24'3 7.6
2018-Jun-13 19:30N 37°46' W 122°20'4 7.7
2018-Jun-13 19:00N 37°49' W 122°24'1 1.1
2018-Jun-13 18:29N 37°49' W 122°25'1 2.5
2018-Jun-13 17:58N 37°48' W 122°24'510.3
2018-Jun-13 17:30N 37°47' W 122°18'0 0.3
2018-Jun-13 17:00N 37°48' W 122°17'5 9.6
2018-Jun-13 16:30N 37°48' W 122°24'713.5
2018-Jun-13 16:00N 37°44' W 122°16'712.9
2018-Jun-13 15:29N 37°40' W 122°23'715.4
2018-Jun-13 15:00N 37°47' W 122°21'2 4.7
2018-Jun-13 14:30N 37°47' W 122°18'5 9.2
2018-Jun-13 13:58N 37°48' W 122°24'0 0.0
2018-Jun-13 13:28N 37°48' W 122°24'0 0.0
2018-Jun-13 04:29N 37°48' W 122°24'611.8
2018-Jun-13 04:00N 37°48' W 122°17'5 9.0
2018-Jun-13 03:30N 37°48' W 122°23'2 3.7
2018-Jun-13 02:59N 37°49' W 122°25'0 0.0
2018-Jun-13 02:29N 37°49' W 122°25'0 0.0
2018-Jun-13 01:59N 37°49' W 122°25'1 1.7
2018-Jun-13 01:30N 37°49' W 122°24'5 9.8
2018-Jun-13 01:00N 37°47' W 122°18'814.4
2018-Jun-13 00:28N 37°40' W 122°22'1 1.7
2018-Jun-12 23:54N 37°40' W 122°23'1 2.2
2018-Jun-12 23:29N 37°40' W 122°22'8 1.4
2018-Jun-12 18:05N 37°48' W 122°24'0 0.0
2018-Jun-12 17:59N 37°48' W 122°24'0 1.0
2018-Jun-12 17:30N 37°48' W 122°23'0 0.5
2018-Jun-12 17:01N 37°48' W 122°24'1 1.7
2018-Jun-12 16:28N 37°49' W 122°25'1 2.4
2018-Jun-12 16:00N 37°48' W 122°23'914.5
2018-Jun-12 15:25N 37°40' W 122°23'819.4
2018-Jun-12 15:00N 37°48' W 122°20'2 4.4
2018-Jun-12 14:30N 37°47' W 122°18'5 9.2
2018-Jun-12 13:58N 37°48' W 122°24'0 0.0
2018-Jun-12 04:31N 37°48' W 122°24'0 0.0
2018-Jun-12 04:28N 37°48' W 122°24'611.5
2018-Jun-12 03:59N 37°48' W 122°17'510.3
2018-Jun-12 03:30N 37°48' W 122°23'2 2.9
2018-Jun-12 02:57N 37°49' W 122°25'0 0.0
2018-Jun-12 02:30N 37°49' W 122°25'0 0.0
2018-Jun-12 02:00N 37°49' W 122°25'4 8.6
2018-Jun-12 01:31N 37°48' W 122°20'1 2.6
2018-Jun-12 00:57N 37°47' W 122°18'714.9
2018-Jun-12 00:30N 37°41' W 122°21'2 3.8
2018-Jun-11 23:59N 37°40' W 122°23'3 7.2
2018-Jun-11 23:30N 37°43' W 122°21'611.1
2018-Jun-11 23:00N 37°48' W 122°24'0 0.0
2018-Jun-11 19:36N 37°48' W 122°24'0 1.4
2018-Jun-11 19:30N 37°48' W 122°24'1 1.8
2018-Jun-11 19:00N 37°49' W 122°25'0 0.0
2018-Jun-11 18:30N 37°49' W 122°25'1 2.5
2018-Jun-11 17:58N 37°48' W 122°24'5 9.5
2018-Jun-11 17:29N 37°47' W 122°18'1 1.5
2018-Jun-11 17:00N 37°48' W 122°19'4 6.5
2018-Jun-11 16:24N 37°48' W 122°24'2 4.4
2018-Jun-11 16:00N 37°46' W 122°22'711.7
2018-Jun-11 15:27N 37°40' W 122°23'818.9
2018-Jun-11 15:00N 37°48' W 122°18'1 1.2
2018-Jun-11 14:27N 37°47' W 122°18'2 4.1
2018-Jun-11 14:00N 37°48' W 122°20'3 5.5
2018-Jun-11 13:26N 37°48' W 122°24'  
2018-Jun-09 04:36N 37°48' W 122°24'0 0.4
2018-Jun-09 04:28N 37°48' W 122°24'611.2
2018-Jun-09 03:58N 37°48' W 122°17'4 9.5
2018-Jun-09 03:30N 37°48' W 122°22'2 3.8
2018-Jun-09 02:58N 37°49' W 122°25'0 0.0
2018-Jun-09 02:28N 37°49' W 122°25'0 0.1
2018-Jun-09 01:58N 37°49' W 122°25'2 4.2
2018-Jun-09 01:30N 37°48' W 122°22'4 7.3
2018-Jun-09 00:59N 37°47' W 122°18'815.6
2018-Jun-09 00:28N 37°40' W 122°22'1 1.5
2018-Jun-09 00:01N 37°40' W 122°23'0 0.6
2018-Jun-08 23:30N 37°40' W 122°22'815.6
2018-Jun-08 22:59N 37°48' W 122°24'0 0.0
2018-Jun-08 22:29N 37°48' W 122°24'0 0.0
2018-Jun-08 21:59N 37°48' W 122°24'0 0.0
2018-Jun-08 21:29N 37°48' W 122°24'0 0.0
2018-Jun-08 20:53N 37°48' W 122°24'0 0.0
2018-Jun-08 20:29N 37°48' W 122°24'0 0.0
2018-Jun-08 19:59N 37°48' W 122°24'0 0.0
2018-Jun-08 19:29N 37°48' W 122°24'0 0.0
2018-Jun-08 18:59N 37°48' W 122°24'1 1.8
2018-Jun-08 18:30N 37°49' W 122°25'1 1.4
2018-Jun-08 18:00N 37°49' W 122°24'6 8.9
2018-Jun-08 17:22N 37°47' W 122°18'0 1.1
2018-Jun-08 17:00N 37°48' W 122°17'5 9.3
2018-Jun-08 16:30N 37°47' W 122°23'810.9
2018-Jun-08 15:49N 37°40' W 122°23'0 0.0
2018-Jun-08 15:25N 37°40' W 122°23'  
Track history (hours):
 
Tides and Currents Weather Stations Pressure Air Temp Water Temp Dewpoint Dewpoint Depression Visibility Wind Speed Wind Dir Waves Ship Positions

Pisces

Owner: San Francisco Bay Area Water Emergency Transportation Authority, San Francisco, CA. More information available from US FCC via Universal Licensing System and Coast Guard Vessel Documentation Center.

Last reported at 2018-Jun-18 15:01 UTC. Time now 2018-Jun-18 15:03 UTC.
Position N 37°47' W 122°21'.

Length 35 m.

MMSI: 367391830.

Date/timePositionNaut miles runAvg speedWind from/ knotsBaromVisibWave heightAir tempDewpointWater temp
2018-Jun-18 15:01N 37°47' W 122°21'3 5.2
2018-Jun-18 14:28N 37°47' W 122°18'4 7.8
2018-Jun-18 14:00N 37°44' W 122°20'  
2018-Jun-16 03:26N 37°40' W 122°23'819.8
2018-Jun-16 03:00N 37°48' W 122°19'1 1.7
2018-Jun-16 02:31N 37°48' W 122°18'814.3
2018-Jun-16 01:55N 37°40' W 122°23'715.5
2018-Jun-16 01:27N 37°44' W 122°15'714.7
2018-Jun-16 00:58N 37°48' W 122°24'510.2
2018-Jun-16 00:30N 37°47' W 122°18'1 1.3
2018-Jun-16 00:00N 37°48' W 122°17'816.6
2018-Jun-15 23:30N 37°40' W 122°22'1 1.4
2018-Jun-15 22:58N 37°40' W 122°23'815.0
2018-Jun-15 22:27N 37°48' W 122°24'0 0.0
2018-Jun-15 04:33N 37°48' W 122°24'0 0.0
2018-Jun-15 04:30N 37°48' W 122°24'610.5
2018-Jun-15 03:58N 37°48' W 122°17'510.7
2018-Jun-15 03:30N 37°48' W 122°23'2 2.7
2018-Jun-15 02:57N 37°49' W 122°25'0 0.0
2018-Jun-15 02:30N 37°49' W 122°25'0 0.0
2018-Jun-15 02:00N 37°49' W 122°25'1 2.4
2018-Jun-15 01:30N 37°49' W 122°23'4 7.8
2018-Jun-15 00:56N 37°47' W 122°18'716.7
2018-Jun-15 00:31N 37°41' W 122°21'2 3.0
2018-Jun-15 00:00N 37°40' W 122°23'2 3.1
2018-Jun-14 23:30N 37°41' W 122°21'713.6
2018-Jun-14 22:58N 37°48' W 122°24'0 0.0
2018-Jun-14 22:28N 37°48' W 122°24'0 0.0
2018-Jun-14 21:52N 37°48' W 122°24'0 0.0
2018-Jun-14 21:28N 37°48' W 122°24'0 0.0
2018-Jun-14 20:55N 37°48' W 122°24'0 0.0
2018-Jun-14 20:25N 37°48' W 122°24'0 0.0
2018-Jun-14 19:55N 37°48' W 122°24'0 0.0
2018-Jun-14 19:25N 37°48' W 122°24'0 0.0
2018-Jun-14 18:58N 37°48' W 122°24'1 1.8
2018-Jun-14 18:27N 37°49' W 122°25'1 2.3
2018-Jun-14 17:53N 37°48' W 122°24'511.7
2018-Jun-14 17:29N 37°47' W 122°18'0 0.2
2018-Jun-14 17:00N 37°48' W 122°18'5 9.7
2018-Jun-14 16:30N 37°48' W 122°24'0 0.4
2018-Jun-14 16:00N 37°48' W 122°24'1 1.8
2018-Jun-14 15:30N 37°49' W 122°25'0 0.0
2018-Jun-14 14:57N 37°49' W 122°25'1 2.6
2018-Jun-14 14:27N 37°48' W 122°24'713.7
2018-Jun-14 13:55N 37°44' W 122°15'3 7.6
2018-Jun-14 13:30N 37°44' W 122°19'5 0.5
2018-Jun-14 03:25N 37°40' W 122°23'820.1
2018-Jun-14 03:01N 37°48' W 122°19'0 0.8
2018-Jun-14 02:30N 37°48' W 122°20'816.7
2018-Jun-14 02:00N 37°40' W 122°23'712.2
2018-Jun-14 01:25N 37°44' W 122°15'716.0
2018-Jun-14 00:58N 37°48' W 122°24'5 9.5
2018-Jun-14 00:28N 37°47' W 122°18'1 1.1
2018-Jun-14 00:00N 37°48' W 122°17'916.8
2018-Jun-13 23:29N 37°40' W 122°23'0 0.3
2018-Jun-13 23:00N 37°40' W 122°22'814.6
2018-Jun-13 22:28N 37°48' W 122°23'0 0.8
2018-Jun-13 21:57N 37°48' W 122°24'0 0.0
2018-Jun-13 21:24N 37°48' W 122°24'0 0.0
2018-Jun-13 21:00N 37°48' W 122°24'0 0.0
2018-Jun-13 20:30N 37°48' W 122°24'0 0.0
2018-Jun-13 19:57N 37°48' W 122°24'3 7.6
2018-Jun-13 19:30N 37°46' W 122°20'4 7.7
2018-Jun-13 19:00N 37°49' W 122°24'1 1.1
2018-Jun-13 18:29N 37°49' W 122°25'1 2.5
2018-Jun-13 17:58N 37°48' W 122°24'510.3
2018-Jun-13 17:30N 37°47' W 122°18'0 0.3
2018-Jun-13 17:00N 37°48' W 122°17'5 9.6
2018-Jun-13 16:30N 37°48' W 122°24'713.5
2018-Jun-13 16:00N 37°44' W 122°16'712.9
2018-Jun-13 15:29N 37°40' W 122°23'715.4
2018-Jun-13 15:00N 37°47' W 122°21'2 4.7
2018-Jun-13 14:30N 37°47' W 122°18'5 9.2
2018-Jun-13 13:58N 37°48' W 122°24'0 0.0
2018-Jun-13 13:28N 37°48' W 122°24'0 0.0
2018-Jun-13 04:29N 37°48' W 122°24'611.8
2018-Jun-13 04:00N 37°48' W 122°17'5 9.0
2018-Jun-13 03:30N 37°48' W 122°23'2 3.7
2018-Jun-13 02:59N 37°49' W 122°25'0 0.0
2018-Jun-13 02:29N 37°49' W 122°25'0 0.0
2018-Jun-13 01:59N 37°49' W 122°25'1 1.7
2018-Jun-13 01:30N 37°49' W 122°24'5 9.8
2018-Jun-13 01:00N 37°47' W 122°18'814.4
2018-Jun-13 00:28N 37°40' W 122°22'1 1.7
2018-Jun-12 23:54N 37°40' W 122°23'1 2.2
2018-Jun-12 23:29N 37°40' W 122°22'8 1.4
2018-Jun-12 18:05N 37°48' W 122°24'0 0.0
2018-Jun-12 17:59N 37°48' W 122°24'0 1.0
2018-Jun-12 17:30N 37°48' W 122°23'0 0.5
2018-Jun-12 17:01N 37°48' W 122°24'1 1.7
2018-Jun-12 16:28N 37°49' W 122°25'1 2.4
2018-Jun-12 16:00N 37°48' W 122°23'914.5
2018-Jun-12 15:25N 37°40' W 122°23'819.4
2018-Jun-12 15:00N 37°48' W 122°20'2 4.4
2018-Jun-12 14:30N 37°47' W 122°18'5 9.2
2018-Jun-12 13:58N 37°48' W 122°24'0 0.0
2018-Jun-12 04:31N 37°48' W 122°24'0 0.0
2018-Jun-12 04:28N 37°48' W 122°24'611.5
2018-Jun-12 03:59N 37°48' W 122°17'510.3
2018-Jun-12 03:30N 37°48' W 122°23'2 2.9
2018-Jun-12 02:57N 37°49' W 122°25'0 0.0
2018-Jun-12 02:30N 37°49' W 122°25'0 0.0
2018-Jun-12 02:00N 37°49' W 122°25'4 8.6
2018-Jun-12 01:31N 37°48' W 122°20'1 2.6
2018-Jun-12 00:57N 37°47' W 122°18'714.9
2018-Jun-12 00:30N 37°41' W 122°21'2 3.8
2018-Jun-11 23:59N 37°40' W 122°23'3 7.2
2018-Jun-11 23:30N 37°43' W 122°21'611.1
2018-Jun-11 23:00N 37°48' W 122°24'0 0.0
2018-Jun-11 19:36N 37°48' W 122°24'0 1.4
2018-Jun-11 19:30N 37°48' W 122°24'1 1.8
2018-Jun-11 19:00N 37°49' W 122°25'0 0.0
2018-Jun-11 18:30N 37°49' W 122°25'1 2.5
2018-Jun-11 17:58N 37°48' W 122°24'5 9.5
2018-Jun-11 17:29N 37°47' W 122°18'1 1.5
2018-Jun-11 17:00N 37°48' W 122°19'4 6.5
2018-Jun-11 16:24N 37°48' W 122°24'2 4.4
2018-Jun-11 16:00N 37°46' W 122°22'711.7
2018-Jun-11 15:27N 37°40' W 122°23'818.9
2018-Jun-11 15:00N 37°48' W 122°18'1 1.2
2018-Jun-11 14:27N 37°47' W 122°18'2 4.1
2018-Jun-11 14:00N 37°48' W 122°20'3 5.5
2018-Jun-11 13:26N 37°48' W 122°24'  
2018-Jun-09 04:36N 37°48' W 122°24'0 0.4
2018-Jun-09 04:28N 37°48' W 122°24'611.2
2018-Jun-09 03:58N 37°48' W 122°17'4 9.5
2018-Jun-09 03:30N 37°48' W 122°22'2 3.8
2018-Jun-09 02:58N 37°49' W 122°25'0 0.0
2018-Jun-09 02:28N 37°49' W 122°25'0 0.1
2018-Jun-09 01:58N 37°49' W 122°25'2 4.2
2018-Jun-09 01:30N 37°48' W 122°22'4 7.3
2018-Jun-09 00:59N 37°47' W 122°18'815.6
2018-Jun-09 00:28N 37°40' W 122°22'1 1.5
2018-Jun-09 00:01N 37°40' W 122°23'0 0.6
2018-Jun-08 23:30N 37°40' W 122°22'815.6
2018-Jun-08 22:59N 37°48' W 122°24'0 0.0
2018-Jun-08 22:29N 37°48' W 122°24'0 0.0
2018-Jun-08 21:59N 37°48' W 122°24'0 0.0
2018-Jun-08 21:29N 37°48' W 122°24'0 0.0
2018-Jun-08 20:53N 37°48' W 122°24'0 0.0
2018-Jun-08 20:29N 37°48' W 122°24'0 0.0
2018-Jun-08 19:59N 37°48' W 122°24'0 0.0
2018-Jun-08 19:29N 37°48' W 122°24'0 0.0
2018-Jun-08 18:59N 37°48' W 122°24'1 1.8
2018-Jun-08 18:30N 37°49' W 122°25'1 1.4
2018-Jun-08 18:00N 37°49' W 122°24'6 8.9
2018-Jun-08 17:22N 37°47' W 122°18'0 1.1
2018-Jun-08 17:00N 37°48' W 122°17'5 9.3
2018-Jun-08 16:30N 37°47' W 122°23'810.9
2018-Jun-08 15:49N 37°40' W 122°23'0 0.0
2018-Jun-08 15:25N 37°40' W 122°23'  

Dump ship's entire track history